sensor_id;sensor_type;location;lat;lon;timestamp;P1;durP1;ratioP1;P2;durP2;ratioP2
69046;SDS011;57261;47.504;19.084;2023-01-15T00:04:26;40.05;;;19.48;;
69046;SDS011;57261;47.504;19.084;2023-01-15T00:07:27;39.00;;;19.00;;
69046;SDS011;57261;47.504;19.084;2023-01-15T00:10:27;47.42;;;23.17;;
69046;SDS011;57261;47.504;19.084;2023-01-15T00:13:31;45.73;;;23.10;;
69046;SDS011;57261;47.504;19.084;2023-01-15T00:16:31;38.23;;;19.63;;
69046;SDS011;57261;47.504;19.084;2023-01-15T00:19:32;37.72;;;20.40;;
69046;SDS011;57261;47.504;19.084;2023-01-15T00:22:32;40.17;;;19.93;;
69046;SDS011;57261;47.504;19.084;2023-01-15T00:25:33;36.30;;;17.75;;
69046;SDS011;57261;47.504;19.084;2023-01-15T00:28:53;34.47;;;17.47;;
69046;SDS011;57261;47.504;19.084;2023-01-15T00:35:00;35.60;;;17.60;;
69046;SDS011;57261;47.504;19.084;2023-01-15T00:38:01;34.83;;;17.33;;
69046;SDS011;57261;47.504;19.084;2023-01-15T00:41:01;34.13;;;16.50;;
69046;SDS011;57261;47.504;19.084;2023-01-15T00:44:02;31.83;;;16.20;;
69046;SDS011;57261;47.504;19.084;2023-01-15T00:47:02;32.00;;;16.52;;
69046;SDS011;57261;47.504;19.084;2023-01-15T00:50:04;33.37;;;16.63;;
69046;SDS011;57261;47.504;19.084;2023-01-15T00:53:06;31.40;;;15.98;;
69046;SDS011;57261;47.504;19.084;2023-01-15T00:56:06;32.03;;;16.50;;
69046;SDS011;57261;47.504;19.084;2023-01-15T00:59:07;30.40;;;16.10;;
69046;SDS011;57261;47.504;19.084;2023-01-15T01:02:08;38.23;;;19.20;;
69046;SDS011;57261;47.504;19.084;2023-01-15T01:05:12;40.15;;;20.13;;
69046;SDS011;57261;47.504;19.084;2023-01-15T01:08:12;33.57;;;17.37;;
69046;SDS011;57261;47.504;19.084;2023-01-15T01:11:14;34.22;;;17.50;;
69046;SDS011;57261;47.504;19.084;2023-01-15T01:14:16;43.05;;;20.15;;
69046;SDS011;57261;47.504;19.084;2023-01-15T01:17:18;36.38;;;19.13;;
69046;SDS011;57261;47.504;19.084;2023-01-15T01:20:19;39.33;;;20.53;;
69046;SDS011;57261;47.504;19.084;2023-01-15T01:23:22;38.35;;;19.10;;
69046;SDS011;57261;47.504;19.084;2023-01-15T01:26:23;34.85;;;17.40;;
69046;SDS011;57261;47.504;19.084;2023-01-15T01:29:24;35.23;;;17.27;;
69046;SDS011;57261;47.504;19.084;2023-01-15T01:32:24;28.47;;;15.73;;
69046;SDS011;57261;47.504;19.084;2023-01-15T01:35:25;30.35;;;14.93;;
69046;SDS011;57261;47.504;19.084;2023-01-15T01:38:26;29.47;;;14.93;;
69046;SDS011;57261;47.504;19.084;2023-01-15T01:41:27;29.70;;;15.60;;
69046;SDS011;57261;47.504;19.084;2023-01-15T01:47:31;28.38;;;15.43;;
69046;SDS011;57261;47.504;19.084;2023-01-15T01:50:33;31.38;;;15.73;;
69046;SDS011;57261;47.504;19.084;2023-01-15T01:53:36;29.47;;;16.27;;
69046;SDS011;57261;47.504;19.084;2023-01-15T01:56:37;29.10;;;14.65;;
69046;SDS011;57261;47.504;19.084;2023-01-15T01:59:38;28.17;;;15.07;;
69046;SDS011;57261;47.504;19.084;2023-01-15T02:02:42;28.92;;;15.45;;
69046;SDS011;57261;47.504;19.084;2023-01-15T02:05:51;29.30;;;14.73;;
69046;SDS011;57261;47.504;19.084;2023-01-15T02:08:54;31.58;;;15.65;;
69046;SDS011;57261;47.504;19.084;2023-01-15T02:12:08;30.90;;;15.35;;
69046;SDS011;57261;47.504;19.084;2023-01-15T02:15:18;27.47;;;14.40;;
69046;SDS011;57261;47.504;19.084;2023-01-15T02:18:30;30.90;;;15.30;;
69046;SDS011;57261;47.504;19.084;2023-01-15T02:21:50;27.73;;;14.18;;
69046;SDS011;57261;47.504;19.084;2023-01-15T02:34:26;32.10;;;15.73;;
69046;SDS011;57261;47.504;19.084;2023-01-15T02:37:32;28.65;;;14.02;;
69046;SDS011;57261;47.504;19.084;2023-01-15T02:40:38;28.33;;;14.33;;
69046;SDS011;57261;47.504;19.084;2023-01-15T02:43:43;26.63;;;14.80;;
69046;SDS011;57261;47.504;19.084;2023-01-15T02:46:46;26.85;;;14.02;;
69046;SDS011;57261;47.504;19.084;2023-01-15T02:49:47;26.75;;;14.07;;
69046;SDS011;57261;47.504;19.084;2023-01-15T02:52:52;25.52;;;13.73;;
69046;SDS011;57261;47.504;19.084;2023-01-15T02:55:57;27.63;;;14.32;;
69046;SDS011;57261;47.504;19.084;2023-01-15T02:59:03;28.45;;;13.85;;
69046;SDS011;57261;47.504;19.084;2023-01-15T03:02:09;26.10;;;13.57;;
69046;SDS011;57261;47.504;19.084;2023-01-15T03:08:16;27.35;;;14.27;;
69046;SDS011;57261;47.504;19.084;2023-01-15T03:11:17;29.87;;;15.37;;
69046;SDS011;57261;47.504;19.084;2023-01-15T03:14:39;28.67;;;14.93;;
69046;SDS011;57261;47.504;19.084;2023-01-15T03:17:50;26.77;;;13.45;;
69046;SDS011;57261;47.504;19.084;2023-01-15T03:20:56;27.33;;;13.43;;
69046;SDS011;57261;47.504;19.084;2023-01-15T03:23:59;26.38;;;14.00;;
69046;SDS011;57261;47.504;19.084;2023-01-15T03:27:03;27.33;;;13.70;;
69046;SDS011;57261;47.504;19.084;2023-01-15T03:30:05;25.87;;;13.07;;
69046;SDS011;57261;47.504;19.084;2023-01-15T03:33:09;26.35;;;13.10;;
69046;SDS011;57261;47.504;19.084;2023-01-15T03:36:10;27.63;;;13.97;;
69046;SDS011;57261;47.504;19.084;2023-01-15T03:39:11;25.95;;;13.55;;
69046;SDS011;57261;47.504;19.084;2023-01-15T03:45:49;30.85;;;14.70;;
69046;SDS011;57261;47.504;19.084;2023-01-15T03:49:08;27.90;;;13.57;;
69046;SDS011;57261;47.504;19.084;2023-01-15T03:55:43;26.25;;;13.30;;
69046;SDS011;57261;47.504;19.084;2023-01-15T03:58:55;27.15;;;13.75;;
69046;SDS011;57261;47.504;19.084;2023-01-15T04:02:01;26.05;;;12.38;;
69046;SDS011;57261;47.504;19.084;2023-01-15T04:05:05;27.30;;;13.98;;
69046;SDS011;57261;47.504;19.084;2023-01-15T04:08:06;26.63;;;13.32;;
69046;SDS011;57261;47.504;19.084;2023-01-15T04:11:08;27.97;;;13.97;;
69046;SDS011;57261;47.504;19.084;2023-01-15T04:14:11;28.23;;;14.63;;
69046;SDS011;57261;47.504;19.084;2023-01-15T04:17:13;31.23;;;14.20;;
69046;SDS011;57261;47.504;19.084;2023-01-15T04:20:16;26.07;;;13.90;;
69046;SDS011;57261;47.504;19.084;2023-01-15T04:23:17;27.40;;;13.43;;
69046;SDS011;57261;47.504;19.084;2023-01-15T04:26:19;28.57;;;14.43;;
69046;SDS011;57261;47.504;19.084;2023-01-15T04:29:20;32.70;;;15.82;;
69046;SDS011;57261;47.504;19.084;2023-01-15T04:32:20;29.23;;;14.63;;
69046;SDS011;57261;47.504;19.084;2023-01-15T04:35:21;33.10;;;16.38;;
69046;SDS011;57261;47.504;19.084;2023-01-15T04:38:22;27.67;;;13.80;;
69046;SDS011;57261;47.504;19.084;2023-01-15T04:41:22;27.80;;;13.95;;
69046;SDS011;57261;47.504;19.084;2023-01-15T04:44:41;25.00;;;13.00;;
69046;SDS011;57261;47.504;19.084;2023-01-15T04:47:42;25.63;;;13.45;;
69046;SDS011;57261;47.504;19.084;2023-01-15T04:50:42;30.13;;;15.43;;
69046;SDS011;57261;47.504;19.084;2023-01-15T04:53:43;32.03;;;15.43;;
69046;SDS011;57261;47.504;19.084;2023-01-15T04:56:46;31.43;;;15.80;;
69046;SDS011;57261;47.504;19.084;2023-01-15T04:59:52;26.35;;;13.32;;
69046;SDS011;57261;47.504;19.084;2023-01-15T05:02:52;25.03;;;12.93;;
69046;SDS011;57261;47.504;19.084;2023-01-15T05:05:52;24.00;;;12.25;;
69046;SDS011;57261;47.504;19.084;2023-01-15T05:08:53;26.83;;;14.30;;
69046;SDS011;57261;47.504;19.084;2023-01-15T05:11:54;25.60;;;12.30;;
69046;SDS011;57261;47.504;19.084;2023-01-15T05:14:54;26.08;;;12.60;;
69046;SDS011;57261;47.504;19.084;2023-01-15T05:17:56;25.15;;;12.30;;
69046;SDS011;57261;47.504;19.084;2023-01-15T05:20:56;26.40;;;12.80;;
69046;SDS011;57261;47.504;19.084;2023-01-15T05:23:57;26.08;;;13.35;;
69046;SDS011;57261;47.504;19.084;2023-01-15T05:27:02;29.80;;;14.55;;
69046;SDS011;57261;47.504;19.084;2023-01-15T05:30:05;30.17;;;14.57;;
69046;SDS011;57261;47.504;19.084;2023-01-15T05:33:06;30.55;;;15.45;;
69046;SDS011;57261;47.504;19.084;2023-01-15T05:36:08;27.93;;;14.03;;
69046;SDS011;57261;47.504;19.084;2023-01-15T05:39:10;29.13;;;14.27;;
69046;SDS011;57261;47.504;19.084;2023-01-15T05:42:11;25.97;;;13.57;;
69046;SDS011;57261;47.504;19.084;2023-01-15T05:45:11;24.97;;;12.63;;
69046;SDS011;57261;47.504;19.084;2023-01-15T05:48:12;23.50;;;12.27;;
69046;SDS011;57261;47.504;19.084;2023-01-15T05:51:12;26.80;;;13.63;;
69046;SDS011;57261;47.504;19.084;2023-01-15T05:54:14;25.48;;;12.43;;
69046;SDS011;57261;47.504;19.084;2023-01-15T05:57:23;22.20;;;10.83;;
69046;SDS011;57261;47.504;19.084;2023-01-15T06:00:24;21.58;;;11.07;;
69046;SDS011;57261;47.504;19.084;2023-01-15T06:03:25;20.50;;;10.60;;
69046;SDS011;57261;47.504;19.084;2023-01-15T06:06:26;22.48;;;11.48;;
69046;SDS011;57261;47.504;19.084;2023-01-15T06:09:27;24.80;;;12.90;;
69046;SDS011;57261;47.504;19.084;2023-01-15T06:12:28;21.37;;;10.90;;
69046;SDS011;57261;47.504;19.084;2023-01-15T06:15:29;25.13;;;12.43;;
69046;SDS011;57261;47.504;19.084;2023-01-15T06:18:29;26.80;;;14.17;;
69046;SDS011;57261;47.504;19.084;2023-01-15T06:21:30;24.13;;;12.47;;
69046;SDS011;57261;47.504;19.084;2023-01-15T06:24:32;20.88;;;11.20;;
69046;SDS011;57261;47.504;19.084;2023-01-15T06:27:32;22.70;;;11.63;;
69046;SDS011;57261;47.504;19.084;2023-01-15T06:30:34;24.80;;;12.83;;
69046;SDS011;57261;47.504;19.084;2023-01-15T06:33:36;26.67;;;13.20;;
69046;SDS011;57261;47.504;19.084;2023-01-15T06:36:37;24.00;;;12.47;;
69046;SDS011;57261;47.504;19.084;2023-01-15T06:39:38;25.33;;;13.18;;
69046;SDS011;57261;47.504;19.084;2023-01-15T06:42:38;23.13;;;12.33;;
69046;SDS011;57261;47.504;19.084;2023-01-15T06:45:57;25.37;;;12.33;;
69046;SDS011;57261;47.504;19.084;2023-01-15T06:49:16;27.70;;;13.85;;
69046;SDS011;57261;47.504;19.084;2023-01-15T06:52:17;24.97;;;11.93;;
69046;SDS011;57261;47.504;19.084;2023-01-15T06:55:18;24.30;;;12.60;;
69046;SDS011;57261;47.504;19.084;2023-01-15T06:58:18;23.27;;;12.00;;
69046;SDS011;57261;47.504;19.084;2023-01-15T07:01:24;25.10;;;12.68;;
69046;SDS011;57261;47.504;19.084;2023-01-15T07:04:29;26.30;;;12.83;;
69046;SDS011;57261;47.504;19.084;2023-01-15T07:07:33;25.42;;;12.60;;
69046;SDS011;57261;47.504;19.084;2023-01-15T07:10:36;24.40;;;12.87;;
69046;SDS011;57261;47.504;19.084;2023-01-15T07:13:37;23.23;;;12.43;;
69046;SDS011;57261;47.504;19.084;2023-01-15T07:16:38;24.70;;;12.60;;
69046;SDS011;57261;47.504;19.084;2023-01-15T07:19:40;23.95;;;12.32;;
69046;SDS011;57261;47.504;19.084;2023-01-15T07:22:47;25.17;;;12.90;;
69046;SDS011;57261;47.504;19.084;2023-01-15T07:25:48;24.25;;;12.98;;
69046;SDS011;57261;47.504;19.084;2023-01-15T07:28:49;21.23;;;11.93;;
69046;SDS011;57261;47.504;19.084;2023-01-15T07:31:49;23.80;;;12.63;;
69046;SDS011;57261;47.504;19.084;2023-01-15T07:34:51;23.85;;;13.00;;
69046;SDS011;57261;47.504;19.084;2023-01-15T07:37:51;35.93;;;19.37;;
69046;SDS011;57261;47.504;19.084;2023-01-15T07:40:54;26.67;;;13.53;;
69046;SDS011;57261;47.504;19.084;2023-01-15T07:44:14;25.30;;;12.95;;
69046;SDS011;57261;47.504;19.084;2023-01-15T07:47:33;25.95;;;12.60;;
69046;SDS011;57261;47.504;19.084;2023-01-15T07:50:52;26.20;;;14.40;;
69046;SDS011;57261;47.504;19.084;2023-01-15T07:53:52;27.95;;;14.30;;
69046;SDS011;57261;47.504;19.084;2023-01-15T07:56:53;29.33;;;15.07;;
69046;SDS011;57261;47.504;19.084;2023-01-15T07:59:55;34.40;;;18.65;;
69046;SDS011;57261;47.504;19.084;2023-01-15T08:02:56;30.35;;;16.15;;
69046;SDS011;57261;47.504;19.084;2023-01-15T08:05:56;25.73;;;13.63;;
69046;SDS011;57261;47.504;19.084;2023-01-15T08:08:58;27.02;;;14.23;;
69046;SDS011;57261;47.504;19.084;2023-01-15T08:11:59;26.90;;;14.70;;
69046;SDS011;57261;47.504;19.084;2023-01-15T08:15:20;26.13;;;14.00;;
69046;SDS011;57261;47.504;19.084;2023-01-15T08:18:20;29.33;;;15.48;;
69046;SDS011;57261;47.504;19.084;2023-01-15T08:21:21;27.37;;;14.37;;
69046;SDS011;57261;47.504;19.084;2023-01-15T08:24:22;28.60;;;15.27;;
69046;SDS011;57261;47.504;19.084;2023-01-15T08:27:23;27.42;;;14.38;;
69046;SDS011;57261;47.504;19.084;2023-01-15T08:30:36;25.17;;;14.35;;
69046;SDS011;57261;47.504;19.084;2023-01-15T08:33:37;28.67;;;15.17;;
69046;SDS011;57261;47.504;19.084;2023-01-15T08:36:37;28.75;;;15.18;;
69046;SDS011;57261;47.504;19.084;2023-01-15T08:39:38;26.93;;;14.20;;
69046;SDS011;57261;47.504;19.084;2023-01-15T08:42:38;26.43;;;14.53;;
69046;SDS011;57261;47.504;19.084;2023-01-15T08:45:39;27.20;;;15.02;;
69046;SDS011;57261;47.504;19.084;2023-01-15T08:48:40;29.00;;;15.17;;
69046;SDS011;57261;47.504;19.084;2023-01-15T08:51:40;28.30;;;15.00;;
69046;SDS011;57261;47.504;19.084;2023-01-15T08:54:42;29.27;;;16.08;;
69046;SDS011;57261;47.504;19.084;2023-01-15T08:57:43;29.58;;;16.27;;
69046;SDS011;57261;47.504;19.084;2023-01-15T09:00:44;27.75;;;15.02;;
69046;SDS011;57261;47.504;19.084;2023-01-15T09:03:44;27.57;;;15.07;;
69046;SDS011;57261;47.504;19.084;2023-01-15T09:06:46;27.63;;;15.40;;
69046;SDS011;57261;47.504;19.084;2023-01-15T09:09:48;26.27;;;15.43;;
69046;SDS011;57261;47.504;19.084;2023-01-15T09:12:48;29.80;;;16.05;;
69046;SDS011;57261;47.504;19.084;2023-01-15T09:15:49;28.08;;;15.40;;
69046;SDS011;57261;47.504;19.084;2023-01-15T09:18:52;28.15;;;16.02;;
69046;SDS011;57261;47.504;19.084;2023-01-15T09:21:53;28.83;;;16.10;;
69046;SDS011;57261;47.504;19.084;2023-01-15T09:24:54;28.30;;;15.55;;
69046;SDS011;57261;47.504;19.084;2023-01-15T09:27:54;28.83;;;15.57;;
69046;SDS011;57261;47.504;19.084;2023-01-15T09:30:55;29.20;;;16.20;;
69046;SDS011;57261;47.504;19.084;2023-01-15T09:33:58;27.90;;;15.88;;
69046;SDS011;57261;47.504;19.084;2023-01-15T09:36:58;30.55;;;16.55;;
69046;SDS011;57261;47.504;19.084;2023-01-15T09:40:00;30.25;;;16.00;;
69046;SDS011;57261;47.504;19.084;2023-01-15T09:43:08;30.33;;;15.73;;
69046;SDS011;57261;47.504;19.084;2023-01-15T09:46:22;29.80;;;15.75;;
69046;SDS011;57261;47.504;19.084;2023-01-15T09:55:49;26.30;;;15.60;;
69046;SDS011;57261;47.504;19.084;2023-01-15T09:58:52;26.48;;;15.68;;
69046;SDS011;57261;47.504;19.084;2023-01-15T10:01:53;27.20;;;15.43;;
69046;SDS011;57261;47.504;19.084;2023-01-15T10:08:20;23.17;;;13.15;;
69046;SDS011;57261;47.504;19.084;2023-01-15T10:11:28;23.80;;;13.85;;
69046;SDS011;57261;47.504;19.084;2023-01-15T10:14:54;26.17;;;14.30;;
69046;SDS011;57261;47.504;19.084;2023-01-15T10:18:01;25.77;;;15.07;;
69046;SDS011;57261;47.504;19.084;2023-01-15T10:24:36;23.83;;;13.53;;
69046;SDS011;57261;47.504;19.084;2023-01-15T10:27:38;23.13;;;13.00;;
69046;SDS011;57261;47.504;19.084;2023-01-15T10:30:52;21.95;;;11.75;;
69046;SDS011;57261;47.504;19.084;2023-01-15T10:42:04;23.85;;;13.30;;
69046;SDS011;57261;47.504;19.084;2023-01-15T10:45:10;22.75;;;12.55;;
69046;SDS011;57261;47.504;19.084;2023-01-15T10:55:02;20.27;;;11.23;;
69046;SDS011;57261;47.504;19.084;2023-01-15T10:58:48;21.47;;;12.10;;
69046;SDS011;57261;47.504;19.084;2023-01-15T11:01:56;21.00;;;12.00;;
69046;SDS011;57261;47.504;19.084;2023-01-15T11:05:00;20.85;;;11.88;;
69046;SDS011;57261;47.504;19.084;2023-01-15T11:08:02;21.27;;;11.68;;
69046;SDS011;57261;47.504;19.084;2023-01-15T11:11:13;19.85;;;10.63;;
69046;SDS011;57261;47.504;19.084;2023-01-15T11:14:18;17.92;;;10.82;;
69046;SDS011;57261;47.504;19.084;2023-01-15T11:17:40;22.40;;;11.95;;
69046;SDS011;57261;47.504;19.084;2023-01-15T11:21:01;17.67;;;10.20;;
69046;SDS011;57261;47.504;19.084;2023-01-15T11:24:02;20.92;;;11.68;;
69046;SDS011;57261;47.504;19.084;2023-01-15T11:27:04;19.47;;;10.93;;
69046;SDS011;57261;47.504;19.084;2023-01-15T11:30:29;18.63;;;11.00;;
69046;SDS011;57261;47.504;19.084;2023-01-15T11:33:31;21.23;;;11.30;;
69046;SDS011;57261;47.504;19.084;2023-01-15T11:36:32;17.90;;;10.67;;
69046;SDS011;57261;47.504;19.084;2023-01-15T11:39:33;18.17;;;11.00;;
69046;SDS011;57261;47.504;19.084;2023-01-15T11:42:36;18.87;;;10.90;;
69046;SDS011;57261;47.504;19.084;2023-01-15T11:46:00;17.00;;;10.07;;
69046;SDS011;57261;47.504;19.084;2023-01-15T11:49:22;18.92;;;10.90;;
69046;SDS011;57261;47.504;19.084;2023-01-15T11:52:53;18.63;;;11.00;;
69046;SDS011;57261;47.504;19.084;2023-01-15T11:55:57;19.38;;;10.98;;
69046;SDS011;57261;47.504;19.084;2023-01-15T11:59:03;17.83;;;10.05;;
69046;SDS011;57261;47.504;19.084;2023-01-15T12:02:15;19.15;;;10.85;;
69046;SDS011;57261;47.504;19.084;2023-01-15T12:05:30;18.87;;;10.93;;
69046;SDS011;57261;47.504;19.084;2023-01-15T12:28:25;18.23;;;11.00;;
69046;SDS011;57261;47.504;19.084;2023-01-15T12:34:54;18.58;;;10.60;;
69046;SDS011;57261;47.504;19.084;2023-01-15T12:41:11;21.20;;;11.38;;
69046;SDS011;57261;47.504;19.084;2023-01-15T12:44:15;21.35;;;11.02;;
69046;SDS011;57261;47.504;19.084;2023-01-15T12:53:55;19.10;;;11.47;;
69046;SDS011;57261;47.504;19.084;2023-01-15T12:57:34;19.45;;;10.93;;
69046;SDS011;57261;47.504;19.084;2023-01-15T13:00:45;20.75;;;12.10;;
69046;SDS011;57261;47.504;19.084;2023-01-15T13:03:50;21.17;;;12.32;;
69046;SDS011;57261;47.504;19.084;2023-01-15T13:10:55;19.85;;;11.65;;
69046;SDS011;57261;47.504;19.084;2023-01-15T13:14:09;21.83;;;12.45;;
69046;SDS011;57261;47.504;19.084;2023-01-15T13:20:30;23.42;;;12.68;;
69046;SDS011;57261;47.504;19.084;2023-01-15T13:33:38;23.73;;;13.65;;
69046;SDS011;57261;47.504;19.084;2023-01-15T13:36:45;23.65;;;13.23;;
69046;SDS011;57261;47.504;19.084;2023-01-15T13:39:48;22.48;;;12.52;;
69046;SDS011;57261;47.504;19.084;2023-01-15T13:42:52;22.83;;;13.50;;
69046;SDS011;57261;47.504;19.084;2023-01-15T13:45:54;24.70;;;14.00;;
69046;SDS011;57261;47.504;19.084;2023-01-15T13:48:56;23.93;;;12.67;;
69046;SDS011;57261;47.504;19.084;2023-01-15T13:51:57;21.55;;;12.65;;
69046;SDS011;57261;47.504;19.084;2023-01-15T13:55:10;23.35;;;12.95;;
69046;SDS011;57261;47.504;19.084;2023-01-15T13:58:25;25.83;;;14.05;;
69046;SDS011;57261;47.504;19.084;2023-01-15T14:01:31;25.80;;;13.38;;
69046;SDS011;57261;47.504;19.084;2023-01-15T14:04:35;24.98;;;13.20;;
69046;SDS011;57261;47.504;19.084;2023-01-15T14:07:36;23.07;;;13.03;;
69046;SDS011;57261;47.504;19.084;2023-01-15T14:10:37;23.17;;;12.63;;
69046;SDS011;57261;47.504;19.084;2023-01-15T14:13:48;24.52;;;13.25;;
69046;SDS011;57261;47.504;19.084;2023-01-15T14:27:36;25.17;;;13.70;;
69046;SDS011;57261;47.504;19.084;2023-01-15T14:34:23;25.02;;;13.90;;
69046;SDS011;57261;47.504;19.084;2023-01-15T14:37:31;24.55;;;13.45;;
69046;SDS011;57261;47.504;19.084;2023-01-15T14:40:39;25.08;;;12.93;;
69046;SDS011;57261;47.504;19.084;2023-01-15T14:44:00;24.25;;;13.68;;
69046;SDS011;57261;47.504;19.084;2023-01-15T14:47:02;24.77;;;13.68;;
69046;SDS011;57261;47.504;19.084;2023-01-15T14:53:33;23.17;;;12.82;;
69046;SDS011;57261;47.504;19.084;2023-01-15T14:56:44;22.00;;;12.52;;
69046;SDS011;57261;47.504;19.084;2023-01-15T14:59:53;23.60;;;13.13;;
69046;SDS011;57261;47.504;19.084;2023-01-15T15:03:02;24.83;;;13.02;;
69046;SDS011;57261;47.504;19.084;2023-01-15T15:06:12;22.33;;;12.85;;
69046;SDS011;57261;47.504;19.084;2023-01-15T15:09:13;21.05;;;11.82;;
69046;SDS011;57261;47.504;19.084;2023-01-15T15:12:34;23.07;;;12.60;;
69046;SDS011;57261;47.504;19.084;2023-01-15T15:22:04;23.63;;;12.45;;
69046;SDS011;57261;47.504;19.084;2023-01-15T15:25:09;22.50;;;12.18;;
69046;SDS011;57261;47.504;19.084;2023-01-15T15:28:18;24.45;;;13.00;;
69046;SDS011;57261;47.504;19.084;2023-01-15T15:31:19;23.03;;;12.43;;
69046;SDS011;57261;47.504;19.084;2023-01-15T15:34:25;25.08;;;13.23;;
69046;SDS011;57261;47.504;19.084;2023-01-15T15:37:28;22.33;;;12.53;;
69046;SDS011;57261;47.504;19.084;2023-01-15T15:40:35;22.35;;;13.18;;
69046;SDS011;57261;47.504;19.084;2023-01-15T15:47:20;22.40;;;12.30;;
69046;SDS011;57261;47.504;19.084;2023-01-15T15:50:42;23.83;;;13.32;;
69046;SDS011;57261;47.504;19.084;2023-01-15T15:53:46;25.17;;;13.13;;
69046;SDS011;57261;47.504;19.084;2023-01-15T15:59:53;23.67;;;12.65;;
69046;SDS011;57261;47.504;19.084;2023-01-15T16:03:00;24.33;;;13.45;;
69046;SDS011;57261;47.504;19.084;2023-01-15T16:06:06;23.73;;;13.68;;
69046;SDS011;57261;47.504;19.084;2023-01-15T16:09:07;23.53;;;13.10;;
69046;SDS011;57261;47.504;19.084;2023-01-15T16:12:10;24.52;;;13.82;;
69046;SDS011;57261;47.504;19.084;2023-01-15T16:15:17;25.02;;;13.75;;
69046;SDS011;57261;47.504;19.084;2023-01-15T16:18:24;24.83;;;14.17;;
69046;SDS011;57261;47.504;19.084;2023-01-15T16:21:29;27.23;;;14.52;;
69046;SDS011;57261;47.504;19.084;2023-01-15T16:24:32;27.48;;;14.80;;
69046;SDS011;57261;47.504;19.084;2023-01-15T16:27:33;28.77;;;15.83;;
69046;SDS011;57261;47.504;19.084;2023-01-15T16:30:43;28.30;;;15.98;;
69046;SDS011;57261;47.504;19.084;2023-01-15T16:33:52;30.33;;;17.03;;
69046;SDS011;57261;47.504;19.084;2023-01-15T16:36:54;30.50;;;16.25;;
69046;SDS011;57261;47.504;19.084;2023-01-15T16:39:55;27.08;;;15.52;;
69046;SDS011;57261;47.504;19.084;2023-01-15T16:43:04;27.37;;;15.87;;
69046;SDS011;57261;47.504;19.084;2023-01-15T16:46:16;28.23;;;16.35;;
69046;SDS011;57261;47.504;19.084;2023-01-15T16:55:45;27.67;;;16.35;;
69046;SDS011;57261;47.504;19.084;2023-01-15T16:58:46;31.67;;;17.42;;
69046;SDS011;57261;47.504;19.084;2023-01-15T17:01:46;28.90;;;17.30;;
69046;SDS011;57261;47.504;19.084;2023-01-15T17:04:48;29.92;;;17.33;;
69046;SDS011;57261;47.504;19.084;2023-01-15T17:07:51;31.75;;;17.73;;
69046;SDS011;57261;47.504;19.084;2023-01-15T17:10:57;30.05;;;18.23;;
69046;SDS011;57261;47.504;19.084;2023-01-15T17:14:06;31.70;;;18.65;;
69046;SDS011;57261;47.504;19.084;2023-01-15T17:20:25;31.23;;;18.70;;
69046;SDS011;57261;47.504;19.084;2023-01-15T17:23:27;33.42;;;18.45;;
69046;SDS011;57261;47.504;19.084;2023-01-15T17:26:30;29.77;;;17.58;;
69046;SDS011;57261;47.504;19.084;2023-01-15T17:29:32;33.23;;;18.93;;
69046;SDS011;57261;47.504;19.084;2023-01-15T17:32:33;33.35;;;18.35;;
69046;SDS011;57261;47.504;19.084;2023-01-15T17:35:43;33.95;;;19.35;;
69046;SDS011;57261;47.504;19.084;2023-01-15T17:38:52;30.98;;;18.85;;
69046;SDS011;57261;47.504;19.084;2023-01-15T17:41:56;30.95;;;17.98;;
69046;SDS011;57261;47.504;19.084;2023-01-15T17:44:57;32.30;;;18.03;;
69046;SDS011;57261;47.504;19.084;2023-01-15T17:47:57;32.55;;;19.35;;
69046;SDS011;57261;47.504;19.084;2023-01-15T17:51:03;33.88;;;19.00;;
69046;SDS011;57261;47.504;19.084;2023-01-15T17:54:08;33.85;;;18.90;;
69046;SDS011;57261;47.504;19.084;2023-01-15T17:57:08;35.20;;;19.47;;
69046;SDS011;57261;47.504;19.084;2023-01-15T18:00:27;32.22;;;17.98;;
69046;SDS011;57261;47.504;19.084;2023-01-15T18:03:47;34.27;;;18.77;;
69046;SDS011;57261;47.504;19.084;2023-01-15T18:07:08;34.13;;;19.38;;
69046;SDS011;57261;47.504;19.084;2023-01-15T18:10:12;32.10;;;18.15;;
69046;SDS011;57261;47.504;19.084;2023-01-15T18:13:18;32.92;;;18.55;;
69046;SDS011;57261;47.504;19.084;2023-01-15T18:16:18;35.00;;;20.40;;
69046;SDS011;57261;47.504;19.084;2023-01-15T18:19:22;32.35;;;19.08;;
69046;SDS011;57261;47.504;19.084;2023-01-15T18:22:22;36.23;;;19.27;;
69046;SDS011;57261;47.504;19.084;2023-01-15T18:25:22;33.83;;;19.20;;
69046;SDS011;57261;47.504;19.084;2023-01-15T18:28:24;34.10;;;18.75;;
69046;SDS011;57261;47.504;19.084;2023-01-15T18:31:24;33.77;;;19.27;;
69046;SDS011;57261;47.504;19.084;2023-01-15T18:34:26;32.50;;;18.80;;
69046;SDS011;57261;47.504;19.084;2023-01-15T18:37:27;34.10;;;19.35;;
69046;SDS011;57261;47.504;19.084;2023-01-15T18:40:27;35.00;;;19.30;;
69046;SDS011;57261;47.504;19.084;2023-01-15T18:43:32;35.15;;;20.40;;
69046;SDS011;57261;47.504;19.084;2023-01-15T18:46:53;36.23;;;19.90;;
69046;SDS011;57261;47.504;19.084;2023-01-15T18:49:55;35.00;;;19.50;;
69046;SDS011;57261;47.504;19.084;2023-01-15T18:52:55;34.53;;;19.47;;
69046;SDS011;57261;47.504;19.084;2023-01-15T18:56:01;37.83;;;21.70;;
69046;SDS011;57261;47.504;19.084;2023-01-15T18:59:04;34.72;;;20.13;;
69046;SDS011;57261;47.504;19.084;2023-01-15T19:02:08;38.40;;;21.40;;
69046;SDS011;57261;47.504;19.084;2023-01-15T19:05:09;37.13;;;20.48;;
69046;SDS011;57261;47.504;19.084;2023-01-15T19:08:12;37.92;;;20.65;;
69046;SDS011;57261;47.504;19.084;2023-01-15T19:11:12;37.53;;;20.57;;
69046;SDS011;57261;47.504;19.084;2023-01-15T19:14:13;40.50;;;22.77;;
69046;SDS011;57261;47.504;19.084;2023-01-15T19:17:32;38.67;;;21.53;;
69046;SDS011;57261;47.504;19.084;2023-01-15T19:20:51;39.60;;;22.83;;
69046;SDS011;57261;47.504;19.084;2023-01-15T19:23:51;41.80;;;22.53;;
69046;SDS011;57261;47.504;19.084;2023-01-15T19:26:52;37.70;;;20.83;;
69046;SDS011;57261;47.504;19.084;2023-01-15T19:29:52;37.95;;;20.63;;
69046;SDS011;57261;47.504;19.084;2023-01-15T19:32:54;40.67;;;22.57;;
69046;SDS011;57261;47.504;19.084;2023-01-15T19:35:55;39.10;;;20.70;;
69046;SDS011;57261;47.504;19.084;2023-01-15T19:38:55;39.43;;;22.27;;
69046;SDS011;57261;47.504;19.084;2023-01-15T19:41:57;39.92;;;22.25;;
69046;SDS011;57261;47.504;19.084;2023-01-15T19:45:16;40.72;;;21.58;;
69046;SDS011;57261;47.504;19.084;2023-01-15T19:48:38;38.80;;;21.95;;
69046;SDS011;57261;47.504;19.084;2023-01-15T19:51:58;39.53;;;23.65;;
69046;SDS011;57261;47.504;19.084;2023-01-15T19:55:17;41.60;;;22.90;;
69046;SDS011;57261;47.504;19.084;2023-01-15T19:58:19;43.58;;;23.15;;
69046;SDS011;57261;47.504;19.084;2023-01-15T20:01:20;40.27;;;22.13;;
69046;SDS011;57261;47.504;19.084;2023-01-15T20:04:20;38.93;;;22.30;;
69046;SDS011;57261;47.504;19.084;2023-01-15T20:07:22;42.00;;;22.90;;
69046;SDS011;57261;47.504;19.084;2023-01-15T20:10:23;42.33;;;23.48;;
69046;SDS011;57261;47.504;19.084;2023-01-15T20:13:24;39.13;;;22.45;;